Kenilworth, United Kingdom
Current Conditions -  °F | °C
As of 8:20 AM on Friday 24 Oct 2014 (Local Time) from EGBE Reporting Station
Scattered Clouds Scattered Clouds  
Wind Chill: 55°   Ceiling: Unl
Heat Index: 55°   Visibility: 6mi
Dew Point: 55°   Wind: 7mph
Humidity: 100%   Direction: 200°SSW
Pressure: 29.91"   Gusts: NA
Location:  52.35°N, 1.58°W
Report Text: EGBE 240720Z 20006KT 170V230 9999 FEW010 SCT030 13/13 Q1013
Loading
Personal Weather Stations






























Interactive Weather Map
Tropical Storm Tracking
New forecast layout! Learn more

10-Day Weather Forecast

Advertisements
Track Severe Weather on mobile